Airfield :
LOGIN :

Register | Disclaimer

   EN    FR    IT 

 










Legend :    VFR   Marginal VFR   IFR   Intensive IFR   Very Intensive IFR
Visi :
Ceiling :
>= 8 km
>= 3000ft
5 to 8 km
1000 to 3000 ft
1500m to 5 km
500 to 1000 ft
800 to 1500m
200 to 500 ft
< 800m
< 200 ft
Symbols :   Thunderstorms  Fog  Heavy snow  Heavy precipitations  Wind > 20 kt
SIGMETs :     Misc.  Thunderstorms  Icing  Turbulence  Mountain Waves  Volcanic Ashes






- Airport Elevation : 233 ft
- IATA code : REU


LERS - Reus Tarragona

CURRENT METAR :
  • 292300Z AUTO 00000KT CAVOK 18/16 Q1015

EXPIRED METARs :
  • 292230Z AUTO 00000KT CAVOK 18/16 Q1015
  • 292200Z 00000KT CAVOK 19/18 Q1015
  • 292130Z 12003KT CAVOK 19/17 Q1015
  • 292100Z 13002KT CAVOK 19/17 Q1015
  • 292030Z 13002KT CAVOK 19/17 Q1015
  • 292000Z 14004KT CAVOK 20/17 Q1015
  • 291930Z 13003KT 080V160 CAVOK 20/18 Q1015
  • 291900Z 15003KT 070V200 CAVOK 22/17 Q1015

TAF TAF LERS
Valid from the 29 at 21:00 until the 30 at 21:00 UTC


292000Z 2921/3021 VRB04KT 9999 FEW015 TX30/3012Z TN16/3005Z
PROB40
TEMPO 2922/3005 4000 BR BKN008
BECMG 3007/3009 23010KT
BECMG 3017/3019 09009KT



MET'MAP, your aeronautical weather chart ! - Copyright ORBIFLY December 2007 - Disclaimer

ORBIFLY MET'MAP TEAM :

Programming & Development : Alexandra Zaïnal
Original concept : Baudouin d'Aumeries
Technical & hardware support : Manuel Goepfert
Assistance : Marc-Olivier Méhu




SOURCES & CREDITS :

   NOAA